Time;durP1;ratioP1;P1;durP2;ratioP2;P2;SDS_P1;SDS_P2;PMS_P1;PMS_P2;Temp;Humidity;BMP_temperature;BMP_pressure;BME280_temperature;BME280_humidity;BME280_pressure;Samples;Min_cycle;Max_cycle;Signal;HPM_P1;HPM_P2
2021/03/13 00:02:07;;;;;;;4.03;2.45;;;7.70;99.90;;;;;;5065713;28;20205;-74
2021/03/13 00:04:34;;;;;;;10.25;2.53;;;7.70;99.90;;;;;;5065000;28;20290;-74
2021/03/13 00:07:00;;;;;;;8.75;1.92;;;7.70;99.90;;;;;;5069608;28;20496;-74
2021/03/13 00:09:27;;;;;;;4.90;2.38;;;7.70;99.90;;;;;;5064624;28;20657;-74
2021/03/13 00:11:53;;;;;;;9.15;1.88;;;7.70;99.90;;;;;;5067129;28;20208;-74
2021/03/13 00:14:20;;;;;;;8.02;2.17;;;7.70;99.90;;;;;;5068300;28;20259;-74
2021/03/13 00:16:46;;;;;;;3.67;1.85;;;7.70;99.90;;;;;;5068589;28;20212;-74
2021/03/13 00:19:14;;;;;;;5.93;2.28;;;7.70;99.90;;;;;;5069111;28;20198;-75
2021/03/13 00:21:40;;;;;;;6.07;2.00;;;7.70;99.90;;;;;;5068777;28;20197;-74
2021/03/13 00:24:08;;;;;;;13.30;2.53;;;7.70;99.90;;;;;;5068575;28;20271;-74
2021/03/13 00:26:34;;;;;;;10.88;2.70;;;7.70;99.90;;;;;;5068494;28;20686;-74
2021/03/13 00:29:01;;;;;;;10.27;2.60;;;7.70;99.90;;;;;;5068371;28;20193;-74
2021/03/13 00:31:27;;;;;;;10.35;3.35;;;7.60;99.90;;;;;;5068537;28;20208;-75
2021/03/13 00:33:54;;;;;;;10.55;2.60;;;7.60;99.90;;;;;;5071509;28;20216;-74
2021/03/13 00:36:21;;;;;;;15.85;2.95;;;7.70;99.90;;;;;;5074010;28;20204;-74
2021/03/13 00:38:47;;;;;;;7.32;2.47;;;7.60;99.90;;;;;;5067992;28;20206;-74
2021/03/13 00:41:14;;;;;;;7.30;2.40;;;7.70;99.90;;;;;;5073019;28;20197;-74
2021/03/13 00:43:40;;;;;;;9.38;2.28;;;7.70;99.90;;;;;;5078930;28;20200;-74
2021/03/13 00:46:07;;;;;;;11.60;2.90;;;7.70;99.90;;;;;;5069564;28;20228;-74
2021/03/13 00:48:33;;;;;;;5.18;2.22;;;7.70;99.90;;;;;;5068287;28;20202;-74
2021/03/13 00:51:00;;;;;;;7.70;2.15;;;7.70;99.90;;;;;;5076915;28;20203;-74
2021/03/13 00:53:27;;;;;;;4.88;2.30;;;7.70;99.90;;;;;;5073887;28;20201;-74
2021/03/13 00:55:54;;;;;;;7.25;3.20;;;7.70;99.90;;;;;;5067388;28;20205;-74
2021/03/13 00:58:20;;;;;;;12.80;2.25;;;7.80;99.90;;;;;;5070725;28;20677;-74
2021/03/13 01:00:47;;;;;;;8.65;2.60;;;7.80;99.90;;;;;;5067873;28;20277;-74
2021/03/13 01:03:13;;;;;;;8.40;2.53;;;7.70;99.90;;;;;;5067188;28;20242;-74
2021/03/13 01:05:40;;;;;;;6.13;2.20;;;7.70;99.90;;;;;;5067084;28;20279;-74
2021/03/13 01:08:07;;;;;;;13.80;2.28;;;7.80;99.90;;;;;;5067678;28;20217;-74
2021/03/13 01:10:36;;;;;;;7.88;3.30;;;7.70;99.90;;;;;;5075162;28;20205;-74
2021/03/13 01:13:05;;;;;;;4.28;2.42;;;7.70;99.90;;;;;;5073023;28;20200;-74
2021/03/13 01:15:32;;;;;;;4.00;2.20;;;7.60;99.90;;;;;;5067897;28;20645;-74
2021/03/13 01:17:59;;;;;;;5.70;2.45;;;7.60;99.90;;;;;;5068061;28;20213;-74
2021/03/13 01:20:27;;;;;;;5.43;3.72;;;7.50;99.90;;;;;;5067571;28;20212;-74
2021/03/13 01:22:54;;;;;;;3.05;2.20;;;7.50;99.90;;;;;;5067387;28;20269;-74
2021/03/13 01:25:20;;;;;;;6.40;2.75;;;7.40;99.90;;;;;;5077932;28;20258;-74
2021/03/13 01:27:48;;;;;;;6.32;2.83;;;7.50;99.90;;;;;;5068373;28;20250;-74
2021/03/13 01:30:19;;;;;;;8.20;3.45;;;7.40;99.90;;;;;;5067154;28;20202;-74
2021/03/13 01:32:45;;;;;;;4.75;2.92;;;7.40;99.90;;;;;;5066952;28;20211;-74
2021/03/13 01:35:13;;;;;;;5.93;2.90;;;7.40;99.90;;;;;;5074669;28;20205;-74
2021/03/13 01:37:40;;;;;;;5.38;3.35;;;7.30;99.90;;;;;;5068793;28;20713;-74
2021/03/13 01:40:10;;;;;;;8.82;2.80;;;7.30;99.90;;;;;;5065582;28;20625;-74
2021/03/13 01:42:37;;;;;;;3.40;2.67;;;7.20;99.90;;;;;;5072692;28;20260;-74
2021/03/13 01:45:07;;;;;;;3.78;3.15;;;7.20;99.90;;;;;;5079130;28;20235;-74
2021/03/13 01:47:34;;;;;;;8.07;2.95;;;7.20;99.90;;;;;;5071416;28;20231;-75
2021/03/13 01:50:01;;;;;;;6.30;2.88;;;7.20;99.90;;;;;;5067030;28;20218;-75
2021/03/13 01:52:28;;;;;;;4.88;2.92;;;7.20;99.90;;;;;;5076709;28;20205;-75
2021/03/13 01:54:55;;;;;;;6.32;2.92;;;7.10;99.90;;;;;;5067036;28;20205;-75
2021/03/13 01:57:22;;;;;;;4.90;2.60;;;7.10;99.90;;;;;;5072611;28;20205;-75
2021/03/13 01:59:48;;;;;;;5.35;3.22;;;7.10;99.90;;;;;;5067101;28;20274;-75
2021/03/13 02:02:16;;;;;;;5.95;2.85;;;7.10;99.90;;;;;;5066990;28;20210;-75
2021/03/13 02:04:43;;;;;;;8.23;3.28;;;7.10;99.90;;;;;;5065923;28;20244;-75
2021/03/13 02:07:17;;;;;;;3.65;3.20;;;7.10;99.90;;;;;;5066769;28;20651;-75
2021/03/13 02:09:51;;;;;;;6.88;3.22;;;7.10;99.90;;;;;;5066471;28;20224;-75
2021/03/13 02:12:30;;;;;;;7.50;3.55;;;7.00;99.90;;;;;;5066557;28;20216;-74
2021/03/13 02:15:01;;;;;;;8.55;3.72;;;7.00;99.90;;;;;;5066332;28;20219;-75
2021/03/13 02:17:36;;;;;;;8.57;3.67;;;7.00;99.90;;;;;;5066840;28;20205;-74
2021/03/13 02:20:42;;;;;;;6.38;3.90;;;6.90;99.90;;;;;;5066131;28;20201;-74
2021/03/13 02:23:09;;;;;;;8.00;4.43;;;6.90;99.90;;;;;;5066392;28;20610;-74
2021/03/13 02:25:48;;;;;;;7.88;3.25;;;6.80;99.90;;;;;;5077596;28;20221;-74
2021/03/13 02:28:21;;;;;;;5.38;3.70;;;6.90;99.90;;;;;;5073117;28;20196;-74
2021/03/13 02:30:51;;;;;;;9.07;3.28;;;6.90;99.90;;;;;;5071420;28;20232;-74
2021/03/13 02:33:24;;;;;;;5.80;3.83;;;6.80;99.90;;;;;;5068673;28;20204;-74
2021/03/13 02:35:56;;;;;;;5.13;3.47;;;6.80;99.90;;;;;;5069107;28;20204;-74
2021/03/13 02:38:27;;;;;;;3.42;2.92;;;6.80;99.90;;;;;;5066404;28;20197;-74
2021/03/13 02:40:56;;;;;;;4.75;3.20;;;6.80;99.90;;;;;;5068575;28;20198;-74
2021/03/13 02:43:25;;;;;;;4.72;3.58;;;6.70;99.90;;;;;;5066161;28;20633;-74
2021/03/13 02:45:58;;;;;;;9.63;4.55;;;6.70;99.90;;;;;;5071108;28;20255;-74
2021/03/13 02:48:25;;;;;;;5.75;3.42;;;6.70;99.90;;;;;;5065822;28;20213;-74
2021/03/13 02:50:53;;;;;;;4.55;3.58;;;6.60;99.90;;;;;;5065737;28;20231;-75
2021/03/13 02:53:21;;;;;;;3.90;3.10;;;6.70;99.90;;;;;;5065925;28;20578;-74
2021/03/13 02:55:50;;;;;;;4.05;2.78;;;6.70;99.90;;;;;;5065271;28;20209;-74
2021/03/13 02:58:19;;;;;;;5.35;3.10;;;6.70;99.90;;;;;;5067521;28;20205;-74
2021/03/13 03:00:46;;;;;;;5.47;3.78;;;6.70;99.90;;;;;;5074210;28;20382;-74
2021/03/13 03:03:16;;;;;;;5.93;3.03;;;6.70;99.90;;;;;;5065694;28;20220;-74
2021/03/13 03:05:43;;;;;;;5.07;4.00;;;6.70;99.90;;;;;;5065646;28;20246;-74
2021/03/13 03:08:11;;;;;;;5.05;2.78;;;6.70;99.90;;;;;;5065233;28;20225;-75
2021/03/13 03:10:41;;;;;;;5.45;3.13;;;6.70;99.90;;;;;;5065641;28;20216;-75
2021/03/13 03:13:09;;;;;;;4.97;3.63;;;6.70;99.90;;;;;;5073201;28;20204;-74
2021/03/13 03:15:35;;;;;;;3.17;2.88;;;6.70;99.90;;;;;;5065377;28;20205;-74
2021/03/13 03:18:07;;;;;;;5.88;3.40;;;6.70;99.90;;;;;;5065684;28;20209;-74
2021/03/13 03:20:36;;;;;;;4.25;2.55;;;6.70;99.90;;;;;;5070743;28;20255;-74
2021/03/13 03:23:04;;;;;;;2.42;2.20;;;6.70;99.90;;;;;;5069681;28;20213;-74
2021/03/13 03:25:30;;;;;;;4.97;2.28;;;6.70;99.90;;;;;;5071585;28;20239;-74
2021/03/13 03:27:57;;;;;;;5.43;3.15;;;6.80;99.90;;;;;;5072702;28;20197;-74
2021/03/13 03:30:27;;;;;;;3.97;2.58;;;6.70;99.90;;;;;;5071258;28;20197;-74
2021/03/13 03:32:53;;;;;;;5.32;2.50;;;6.70;99.90;;;;;;5069154;28;20204;-74
2021/03/13 03:35:21;;;;;;;2.30;2.20;;;6.70;99.90;;;;;;5072795;28;20205;-74
2021/03/13 03:37:51;;;;;;;3.50;2.72;;;6.70;99.90;;;;;;5076844;28;20209;-74
2021/03/13 03:40:19;;;;;;;4.30;2.30;;;6.70;99.90;;;;;;5064966;28;20212;-74
2021/03/13 03:42:49;;;;;;;2.28;2.08;;;6.70;99.90;;;;;;5065837;28;20201;-74
2021/03/13 03:45:18;;;;;;;2.40;2.20;;;6.70;99.90;;;;;;5073756;28;20704;-74
2021/03/13 03:47:47;;;;;;;5.95;2.42;;;6.70;99.90;;;;;;5070916;28;20666;-74
2021/03/13 03:50:15;;;;;;;3.28;2.30;;;6.70;99.90;;;;;;5077642;28;20200;-74
2021/03/13 03:52:47;;;;;;;3.40;2.03;;;6.80;99.90;;;;;;5068708;28;20201;-74
2021/03/13 03:55:17;;;;;;;3.50;2.00;;;6.80;99.90;;;;;;5068552;28;20197;-74
2021/03/13 03:57:45;;;;;;;2.08;1.80;;;6.70;99.90;;;;;;5069233;28;20212;-74
2021/03/13 04:00:13;;;;;;;4.32;2.17;;;6.80;99.90;;;;;;5070038;28;20208;-75
2021/03/13 04:02:41;;;;;;;4.18;1.88;;;6.70;99.90;;;;;;5068751;28;20196;-74
2021/03/13 04:05:11;;;;;;;1.83;1.73;;;6.80;99.90;;;;;;5069165;28;20714;-74
2021/03/13 04:07:39;;;;;;;6.28;1.83;;;6.80;99.90;;;;;;5068923;28;20670;-74
2021/03/13 04:10:08;;;;;;;1.83;1.70;;;6.80;99.90;;;;;;5069635;28;20209;-74
2021/03/13 04:12:38;;;;;;;5.18;1.95;;;6.90;99.90;;;;;;5069512;28;20197;-74
2021/03/13 04:15:06;;;;;;;4.25;1.77;;;6.90;99.90;;;;;;5071135;28;20201;-74
2021/03/13 04:17:34;;;;;;;3.50;2.13;;;6.90;99.90;;;;;;5069978;28;20220;-74
2021/03/13 04:20:01;;;;;;;1.77;1.67;;;6.90;99.90;;;;;;5068565;28;20205;-74
2021/03/13 04:22:28;;;;;;;3.55;2.10;;;6.90;99.90;;;;;;5075168;28;20209;-74
2021/03/13 04:24:57;;;;;;;3.20;2.03;;;6.90;99.90;;;;;;5068314;28;20228;-75
2021/03/13 04:27:24;;;;;;;5.10;1.85;;;6.90;99.90;;;;;;5068577;28;20227;-74
2021/03/13 04:29:51;;;;;;;2.25;1.90;;;7.00;99.90;;;;;;5072770;28;20247;-74
2021/03/13 04:32:19;;;;;;;2.15;1.25;;;7.00;99.90;;;;;;5072522;28;20205;-74
2021/03/13 04:34:47;;;;;;;3.25;1.83;;;7.00;99.90;;;;;;5072690;28;20209;-74
2021/03/13 04:37:14;;;;;;;2.63;1.48;;;7.00;99.90;;;;;;5068608;28;20206;-74
2021/03/13 04:39:41;;;;;;;8.88;2.00;;;6.90;99.90;;;;;;5068444;28;20208;-74
2021/03/13 04:42:09;;;;;;;4.10;2.08;;;6.90;99.90;;;;;;5068029;28;20201;-74
2021/03/13 04:44:37;;;;;;;2.03;1.15;;;7.00;99.90;;;;;;5068096;28;20252;-74
2021/03/13 04:47:05;;;;;;;5.28;1.60;;;7.00;99.90;;;;;;5067467;28;20206;-74
2021/03/13 04:49:32;;;;;;;2.22;1.70;;;7.00;99.90;;;;;;5074372;28;20201;-74
2021/03/13 04:52:00;;;;;;;1.67;1.58;;;7.10;99.90;;;;;;5068066;28;20625;-75
2021/03/13 04:54:27;;;;;;;2.75;1.70;;;7.10;99.90;;;;;;5068018;28;20734;-75
2021/03/13 04:56:53;;;;;;;2.00;1.60;;;7.10;99.90;;;;;;5067598;28;20240;-75
2021/03/13 04:59:20;;;;;;;1.70;1.58;;;7.10;99.90;;;;;;5068358;28;20556;-74
2021/03/13 05:01:47;;;;;;;9.23;1.50;;;7.10;99.90;;;;;;5074500;28;20227;-74
2021/03/13 05:04:14;;;;;;;3.78;1.40;;;7.10;99.90;;;;;;5067420;28;20229;-74
2021/03/13 05:06:41;;;;;;;5.13;1.70;;;7.10;99.90;;;;;;5067348;28;20605;-74
2021/03/13 05:09:08;;;;;;;2.88;1.42;;;7.10;99.90;;;;;;5067824;28;20205;-74
2021/03/13 05:11:34;;;;;;;2.60;1.58;;;7.10;99.90;;;;;;5073186;28;20193;-74
2021/03/13 05:14:01;;;;;;;4.88;1.85;;;7.10;99.90;;;;;;5067419;28;20201;-74
2021/03/13 05:16:28;;;;;;;4.53;1.33;;;7.20;99.90;;;;;;5075367;28;20213;-74
2021/03/13 05:18:55;;;;;;;4.18;1.30;;;7.20;99.90;;;;;;5071341;28;20201;-74
2021/03/13 05:21:23;;;;;;;2.95;1.52;;;7.20;99.90;;;;;;5071020;28;20201;-74
2021/03/13 05:23:50;;;;;;;4.10;1.80;;;7.20;99.90;;;;;;5070503;28;20205;-74
2021/03/13 05:26:16;;;;;;;3.08;1.80;;;7.10;99.90;;;;;;5072209;28;20236;-74
2021/03/13 05:28:43;;;;;;;1.90;1.80;;;7.10;99.90;;;;;;5067047;28;20209;-74
2021/03/13 05:31:09;;;;;;;3.17;1.80;;;7.10;99.90;;;;;;5073976;28;20197;-74
2021/03/13 05:33:36;;;;;;;1.40;1.30;;;7.10;99.90;;;;;;5074739;28;20204;-74
2021/03/13 05:36:03;;;;;;;3.45;1.30;;;7.10;99.90;;;;;;5073218;28;20201;-74
2021/03/13 05:38:30;;;;;;;5.85;1.73;;;7.10;99.90;;;;;;5073750;28;20207;-74
2021/03/13 05:40:57;;;;;;;1.65;1.55;;;7.10;99.90;;;;;;5067595;28;20210;-74
2021/03/13 05:43:24;;;;;;;2.45;1.00;;;7.10;99.90;;;;;;5067127;28;20201;-74
2021/03/13 05:45:51;;;;;;;1.42;1.30;;;7.10;99.90;;;;;;5066849;28;20298;-74
2021/03/13 05:48:21;;;;;;;1.20;1.10;;;7.10;99.90;;;;;;5067320;28;20213;-74
2021/03/13 05:50:48;;;;;;;3.70;1.10;;;7.10;99.90;;;;;;5066137;28;20210;-74
2021/03/13 05:53:15;;;;;;;1.10;1.05;;;7.10;99.90;;;;;;5065370;28;20205;-74
2021/03/13 05:55:43;;;;;;;3.80;1.10;;;7.20;99.90;;;;;;5071580;28;20490;-74
2021/03/13 05:58:11;;;;;;;1.95;1.30;;;7.10;99.90;;;;;;5083763;28;20220;-74
2021/03/13 06:00:39;;;;;;;2.78;1.23;;;7.20;99.90;;;;;;5072413;28;20204;-75
2021/03/13 06:03:05;;;;;;;1.77;0.80;;;7.20;99.90;;;;;;5066566;28;20279;-74
2021/03/13 06:05:32;;;;;;;2.90;1.27;;;7.20;99.90;;;;;;5073479;28;20237;-74
2021/03/13 06:08:00;;;;;;;1.65;0.85;;;7.30;99.90;;;;;;5067426;28;20201;-74
2021/03/13 06:10:26;;;;;;;2.47;0.90;;;7.20;99.90;;;;;;5068942;28;20204;-74
2021/03/13 06:12:54;;;;;;;2.97;1.60;;;7.20;99.90;;;;;;5076236;28;20200;-74
2021/03/13 06:15:21;;;;;;;4.57;1.40;;;7.30;99.90;;;;;;5069914;28;20203;-74
2021/03/13 06:17:56;;;;;;;1.65;1.10;;;7.30;99.90;;;;;;5074365;28;20218;-74
2021/03/13 06:20:29;;;;;;;1.40;1.05;;;7.30;99.90;;;;;;5066335;28;20215;-74
2021/03/13 06:22:56;;;;;;;1.30;1.30;;;7.40;99.90;;;;;;5066530;28;20231;-74
2021/03/13 06:25:26;;;;;;;1.45;0.73;;;7.40;99.90;;;;;;5065122;28;20221;-74
2021/03/13 06:28:05;;;;;;;1.30;1.10;;;7.40;99.90;;;;;;5066647;28;20197;-74
2021/03/13 06:30:34;;;;;;;5.75;1.58;;;7.40;99.90;;;;;;5070765;28;20205;-74
2021/03/13 06:33:01;;;;;;;3.30;1.40;;;7.40;99.90;;;;;;5072347;28;20205;-74
2021/03/13 06:35:29;;;;;;;1.38;1.25;;;7.50;99.90;;;;;;5065644;28;20208;-74
2021/03/13 06:37:58;;;;;;;4.07;1.20;;;7.50;99.90;;;;;;5066275;28;20209;-74
2021/03/13 06:40:30;;;;;;;1.23;1.13;;;7.50;99.90;;;;;;5065806;28;20202;-74
2021/03/13 06:42:58;;;;;;;3.13;1.10;;;7.60;99.90;;;;;;5065202;28;20208;-74
2021/03/13 06:45:25;;;;;;;2.42;1.27;;;7.60;99.90;;;;;;5065835;28;20240;-74
2021/03/13 06:47:52;;;;;;;2.05;1.00;;;7.60;99.90;;;;;;5068869;28;20197;-74
2021/03/13 06:50:21;;;;;;;4.40;1.20;;;7.60;99.90;;;;;;5067403;28;20206;-74
2021/03/13 06:52:49;;;;;;;3.22;1.33;;;7.70;99.90;;;;;;5066321;28;20197;-74
2021/03/13 06:55:28;;;;;;;1.67;0.80;;;7.70;99.90;;;;;;5065785;28;20197;-75
2021/03/13 06:58:08;;;;;;;1.20;0.70;;;7.70;99.90;;;;;;5065781;28;20204;-75
2021/03/13 07:00:37;;;;;;;3.60;0.80;;;7.80;99.90;;;;;;5070916;28;20197;-75
2021/03/13 07:03:09;;;;;;;2.40;0.70;;;7.90;99.90;;;;;;5070632;28;20721;-75
2021/03/13 07:05:36;;;;;;;2.28;1.20;;;7.80;99.90;;;;;;5065114;28;20225;-75
2021/03/13 07:08:24;;;;;;;2.35;1.55;;;7.90;99.90;;;;;;5069420;28;20213;-75
2021/03/13 07:10:50;;;;;;;1.52;1.15;;;8.00;99.90;;;;;;5064661;28;20566;-75
2021/03/13 07:13:34;;;;;;;3.80;1.40;;;8.00;99.90;;;;;;5069566;28;20236;-75
2021/03/13 07:16:25;;;;;;;1.50;1.40;;;8.10;99.90;;;;;;5064281;28;20649;-75
2021/03/13 07:18:54;;;;;;;0.80;0.80;;;8.10;99.90;;;;;;5065327;28;20211;-75
2021/03/13 07:21:22;;;;;;;1.20;1.00;;;8.10;99.90;;;;;;5069083;28;20210;-75
2021/03/13 07:23:58;;;;;;;1.35;1.15;;;8.10;99.90;;;;;;5074293;28;20209;-75
2021/03/13 07:26:28;;;;;;;1.60;0.90;;;8.00;99.90;;;;;;5074834;28;20228;-75
2021/03/13 07:28:59;;;;;;;0.80;0.80;;;7.90;99.90;;;;;;5069490;28;20206;-75
2021/03/13 07:31:29;;;;;;;2.20;1.00;;;7.80;99.90;;;;;;5070046;28;20202;-76
2021/03/13 07:34:00;;;;;;;1.27;1.00;;;7.70;99.90;;;;;;5073042;28;20202;-76
2021/03/13 07:36:27;;;;;;;0.82;0.82;;;7.70;99.90;;;;;;5070167;28;20204;-75
2021/03/13 07:39:01;;;;;;;3.72;1.00;;;7.60;99.90;;;;;;5070780;28;20205;-76
2021/03/13 07:41:35;;;;;;;1.02;0.63;;;7.60;99.90;;;;;;5070636;28;20207;-76
2021/03/13 07:44:04;;;;;;;2.38;0.65;;;7.50;99.90;;;;;;5077534;28;20200;-76
2021/03/13 07:46:33;;;;;;;1.77;0.77;;;7.50;99.90;;;;;;5074474;28;20227;-75
2021/03/13 07:49:00;;;;;;;3.22;0.90;;;7.50;99.90;;;;;;5075215;28;20232;-76
2021/03/13 07:51:26;;;;;;;4.13;0.85;;;7.50;99.90;;;;;;5069429;28;20202;-75
2021/03/13 07:53:54;;;;;;;2.55;0.93;;;7.50;99.90;;;;;;5068820;28;20197;-75
2021/03/13 07:56:21;;;;;;;2.72;0.90;;;7.40;99.90;;;;;;5079815;28;20204;-76
2021/03/13 07:58:48;;;;;;;5.28;1.38;;;7.40;99.90;;;;;;5069118;28;20212;-75
2021/03/13 08:01:15;;;;;;;1.30;1.20;;;7.40;99.90;;;;;;5073997;28;20201;-75
2021/03/13 08:03:48;;;;;;;2.03;1.20;;;7.40;99.90;;;;;;5071842;28;20224;-75
2021/03/13 08:06:16;;;;;;;1.27;1.17;;;7.40;99.90;;;;;;5081580;28;20249;-75
2021/03/13 08:08:45;;;;;;;1.35;1.25;;;7.40;99.90;;;;;;5069419;28;20233;-75
2021/03/13 08:11:12;;;;;;;1.70;1.08;;;7.40;99.90;;;;;;5068814;28;20728;-75
2021/03/13 08:13:59;;;;;;;2.08;0.70;;;7.40;99.90;;;;;;5069002;28;20201;-76
2021/03/13 08:16:44;;;;;;;3.45;1.55;;;7.50;99.90;;;;;;5073282;28;20207;-75
2021/03/13 08:19:34;;;;;;;0.88;0.60;;;7.50;99.90;;;;;;5074552;28;20206;-75
2021/03/13 08:22:12;;;;;;;1.15;0.80;;;7.50;99.90;;;;;;5074071;28;20219;-75
2021/03/13 08:24:40;;;;;;;3.97;1.50;;;7.50;99.90;;;;;;5068672;28;20208;-75
2021/03/13 08:27:08;;;;;;;1.00;1.00;;;7.60;99.90;;;;;;5068663;28;20671;-75
2021/03/13 08:30:16;;;;;;;2.75;0.90;;;7.70;99.90;;;;;;5068456;28;20219;-75
2021/03/13 08:33:04;;;;;;;1.25;1.15;;;7.70;99.90;;;;;;5067822;28;20259;-75
2021/03/13 08:35:52;;;;;;;7.93;1.30;;;7.80;99.90;;;;;;5068238;28;20240;-75
2021/03/13 08:38:53;;;;;;;1.30;1.23;;;7.80;99.90;;;;;;5068709;28;20738;-75
2021/03/13 08:41:56;;;;;;;2.38;1.17;;;7.90;99.90;;;;;;5067981;28;20236;-75
2021/03/13 08:44:31;;;;;;;0.98;0.98;;;7.90;99.90;;;;;;5074615;28;20250;-75
2021/03/13 08:46:59;;;;;;;2.80;0.90;;;8.00;99.90;;;;;;5068276;28;20313;-75
2021/03/13 08:49:36;;;;;;;3.35;1.13;;;8.10;99.90;;;;;;5079497;28;20281;-75
2021/03/13 08:52:23;;;;;;;4.57;0.98;;;8.10;99.90;;;;;;5075702;28;20211;-74
2021/03/13 08:54:51;;;;;;;2.35;0.90;;;8.20;99.90;;;;;;5068034;28;20209;-75
2021/03/13 08:57:39;;;;;;;5.45;0.85;;;8.20;99.90;;;;;;5068382;28;20219;-75
2021/03/13 09:00:07;;;;;;;3.78;1.10;;;8.30;99.90;;;;;;5072904;28;20201;-75
2021/03/13 09:02:36;;;;;;;4.15;1.67;;;8.20;99.90;;;;;;5073224;28;20242;-75
2021/03/13 09:05:06;;;;;;;4.90;1.58;;;8.30;99.90;;;;;;5067591;28;20224;-75
2021/03/13 09:07:34;;;;;;;3.22;0.90;;;8.30;99.90;;;;;;5067911;28;20698;-75
2021/03/13 09:10:00;;;;;;;1.52;0.95;;;8.40;99.90;;;;;;5067525;28;20235;-75
2021/03/13 09:12:32;;;;;;;5.53;1.08;;;8.50;99.90;;;;;;5067367;28;20203;-75
2021/03/13 09:15:00;;;;;;;4.32;1.20;;;8.50;99.90;;;;;;5071485;28;20212;-74
2021/03/13 09:17:28;;;;;;;2.50;0.68;;;8.50;99.90;;;;;;5067812;28;20229;-74
2021/03/13 09:19:55;;;;;;;3.90;0.80;;;8.50;99.90;;;;;;5072241;28;20205;-74
2021/03/13 09:22:23;;;;;;;4.40;1.10;;;8.50;99.90;;;;;;5068015;28;20224;-75
2021/03/13 09:24:55;;;;;;;4.18;1.08;;;8.60;99.90;;;;;;5070618;28;20215;-74
2021/03/13 09:27:24;;;;;;;3.38;1.73;;;8.60;99.90;;;;;;5079747;28;20208;-75
2021/03/13 09:29:55;;;;;;;1.55;1.38;;;8.70;99.90;;;;;;5066699;28;20208;-75
2021/03/13 09:32:23;;;;;;;4.45;1.10;;;8.80;99.90;;;;;;5071797;28;20209;-74
2021/03/13 09:34:50;;;;;;;7.55;1.45;;;8.90;99.90;;;;;;5067703;28;20201;-75
2021/03/13 09:37:18;;;;;;;1.65;1.48;;;9.00;99.90;;;;;;5066681;28;20226;-75
2021/03/13 09:39:48;;;;;;;4.10;1.20;;;9.00;99.90;;;;;;5072184;28;20208;-75
2021/03/13 09:42:16;;;;;;;4.03;1.63;;;9.10;99.90;;;;;;5075646;28;20253;-75
2021/03/13 09:44:46;;;;;;;4.47;2.13;;;8.90;99.90;;;;;;5065549;28;20212;-75
2021/03/13 09:47:32;;;;;;;7.07;1.92;;;8.80;99.90;;;;;;5071820;28;20209;-75
2021/03/13 09:50:01;;;;;;;11.18;1.77;;;8.60;99.90;;;;;;5066309;28;20194;-75
2021/03/13 09:52:29;;;;;;;7.43;1.33;;;8.60;99.90;;;;;;5066650;28;20642;-75
2021/03/13 09:55:05;;;;;;;4.90;1.88;;;8.50;99.90;;;;;;5079165;28;20209;-75
2021/03/13 09:57:33;;;;;;;1.30;1.20;;;8.40;99.90;;;;;;5066700;28;20573;-75
2021/03/13 10:00:00;;;;;;;5.18;1.67;;;8.50;99.90;;;;;;5066997;28;20220;-75
2021/03/13 10:02:27;;;;;;;3.53;1.30;;;8.50;99.90;;;;;;5066704;28;20235;-75
2021/03/13 10:04:54;;;;;;;7.28;1.90;;;8.50;99.90;;;;;;5027567;28;20210;-75
2021/03/13 10:07:21;;;;;;;8.02;2.15;;;8.60;99.90;;;;;;5026690;28;20206;-75
2021/03/13 10:09:52;;;;;;;5.40;1.70;;;8.70;99.90;;;;;;5027579;28;20690;-75
2021/03/13 10:12:24;;;;;;;7.63;1.80;;;8.80;99.90;;;;;;5038636;28;20213;-75
2021/03/13 10:14:51;;;;;;;10.43;2.00;;;8.80;99.90;;;;;;5037261;28;20202;-75
2021/03/13 10:17:18;;;;;;;6.63;1.75;;;8.90;99.90;;;;;;5026552;28;20220;-75
2021/03/13 10:19:45;;;;;;;4.80;1.65;;;9.00;99.90;;;;;;5032669;28;20853;-75
2021/03/13 10:22:14;;;;;;;6.22;1.45;;;9.10;99.90;;;;;;5031978;28;20194;-75
2021/03/13 10:24:49;;;;;;;5.55;1.60;;;9.20;99.90;;;;;;5027397;28;20199;-75
2021/03/13 10:27:27;;;;;;;10.90;2.25;;;9.40;99.90;;;;;;5030369;28;20194;-75
2021/03/13 10:30:00;;;;;;;13.02;1.67;;;9.50;99.90;;;;;;5026405;28;20206;-75
2021/03/13 10:32:33;;;;;;;9.25;2.40;;;9.60;99.90;;;;;;5031513;28;20213;-75
2021/03/13 10:35:20;;;;;;;8.85;2.00;;;9.70;99.90;;;;;;5032074;28;20213;-75
2021/03/13 10:37:48;;;;;;;7.90;2.45;;;9.70;99.90;;;;;;5030299;28;20213;-74
2021/03/13 10:40:37;;;;;;;5.47;1.70;;;9.70;99.90;;;;;;5031695;28;20206;-74
2021/03/13 10:43:17;;;;;;;11.32;2.40;;;9.70;99.90;;;;;;5027339;28;20202;-75
2021/03/13 10:46:00;;;;;;;11.45;3.15;;;9.60;99.90;;;;;;5025749;28;20234;-75
2021/03/13 10:48:29;;;;;;;8.82;2.17;;;9.60;99.90;;;;;;5029846;28;20202;-75
2021/03/13 10:50:56;;;;;;;10.07;2.00;;;9.60;99.90;;;;;;5027167;28;20598;-75
2021/03/13 10:53:31;;;;;;;6.82;2.13;;;9.70;99.90;;;;;;5036098;28;20194;-75
2021/03/13 10:55:59;;;;;;;14.85;2.35;;;10.10;99.90;;;;;;5032893;28;20606;-74
2021/03/13 10:58:26;;;;;;;11.55;2.15;;;10.60;99.90;;;;;;5026987;28;20202;-74
2021/03/13 11:00:54;;;;;;;9.85;2.00;;;11.00;99.90;;;;;;5036510;28;20213;-74
2021/03/13 11:14:39;;;;;;;9.23;2.53;;;9.50;99.90;;;;;;5110281;28;20207;-75
2021/03/13 11:17:05;;;;;;;7.65;2.60;;;9.40;99.90;;;;;;5110327;28;20657;-75
2021/03/13 11:19:32;;;;;;;7.25;1.73;;;9.50;99.90;;;;;;5108781;28;20200;-75
2021/03/13 11:21:58;;;;;;;9.50;3.03;;;9.50;99.90;;;;;;5109970;28;20218;-75
2021/03/13 11:24:26;;;;;;;9.82;2.60;;;9.40;99.90;;;;;;5106580;28;20228;-75
2021/03/13 11:26:52;;;;;;;13.38;2.88;;;9.40;99.90;;;;;;5108558;28;20204;-74
2021/03/13 11:29:19;;;;;;;7.45;2.33;;;9.60;99.90;;;;;;5102628;28;20200;-75
2021/03/13 11:31:47;;;;;;;7.13;2.22;;;9.80;99.90;;;;;;5103713;28;20211;-75
2021/03/13 11:34:13;;;;;;;10.60;2.53;;;10.00;99.90;;;;;;5111554;28;20214;-75
2021/03/13 11:36:40;;;;;;;10.70;2.33;;;10.20;99.90;;;;;;5103329;28;20630;-75
2021/03/13 11:39:07;;;;;;;11.73;2.72;;;10.50;99.90;;;;;;5105212;28;20673;-75
2021/03/13 11:41:34;;;;;;;10.32;2.30;;;10.60;99.90;;;;;;5106625;28;20215;-75
2021/03/13 11:44:00;;;;;;;10.13;2.95;;;10.80;99.90;;;;;;5102911;28;20283;-75
2021/03/13 11:46:27;;;;;;;12.68;3.00;;;10.80;99.90;;;;;;5103263;28;20219;-74
2021/03/13 11:48:54;;;;;;;4.78;1.80;;;10.50;99.90;;;;;;5105960;28;20208;-74
2021/03/13 11:51:21;;;;;;;4.20;1.27;;;10.20;99.90;;;;;;5102403;28;20207;-75
2021/03/13 11:53:47;;;;;;;6.72;2.33;;;9.80;99.90;;;;;;5109463;28;20215;-74
2021/03/13 11:56:14;;;;;;;12.30;2.47;;;9.50;99.90;;;;;;5109216;28;20229;-74
2021/03/13 11:58:40;;;;;;;7.25;2.03;;;9.30;99.90;;;;;;5105532;28;20204;-74
2021/03/13 12:01:07;;;;;;;13.82;3.22;;;9.10;99.90;;;;;;5103791;28;20199;-74
2021/03/13 12:03:33;;;;;;;7.63;2.50;;;9.10;99.90;;;;;;5103716;28;20707;-75
2021/03/13 12:06:01;;;;;;;10.52;2.22;;;9.10;99.90;;;;;;5107897;28;20203;-74
2021/03/13 12:08:27;;;;;;;11.15;2.13;;;9.30;99.90;;;;;;5102968;28;20201;-75
2021/03/13 12:10:54;;;;;;;9.35;2.88;;;9.40;99.90;;;;;;5111729;28;20199;-74
2021/03/13 12:13:20;;;;;;;8.77;2.08;;;9.70;99.90;;;;;;5101695;28;20204;-74
2021/03/13 12:15:47;;;;;;;7.38;2.53;;;9.90;99.90;;;;;;5090884;28;20203;-74
2021/03/13 12:18:13;;;;;;;9.18;1.80;;;10.10;99.90;;;;;;5089063;28;20204;-74
2021/03/13 12:20:40;;;;;;;8.90;1.98;;;10.20;99.90;;;;;;5106873;28;20188;-74
2021/03/13 12:23:07;;;;;;;8.70;2.10;;;10.30;99.90;;;;;;5108995;28;20212;-74
2021/03/13 12:25:34;;;;;;;9.32;2.17;;;10.40;99.90;;;;;;5093579;28;20205;-75
2021/03/13 12:28:00;;;;;;;8.05;1.85;;;10.40;99.90;;;;;;5094461;28;20609;-75
2021/03/13 12:30:27;;;;;;;9.60;2.90;;;10.30;99.90;;;;;;5095554;28;20226;-74
2021/03/13 12:32:56;;;;;;;9.40;2.13;;;10.30;99.90;;;;;;5093934;28;20207;-75
2021/03/13 12:35:23;;;;;;;4.18;1.73;;;10.10;99.90;;;;;;5095605;28;20212;-75
2021/03/13 12:37:50;;;;;;;7.50;2.95;;;9.70;99.90;;;;;;5088012;28;20200;-75
2021/03/13 12:40:18;;;;;;;9.60;1.90;;;9.10;99.90;;;;;;5088870;28;20229;-74
2021/03/13 12:42:44;;;;;;;9.00;2.33;;;8.50;99.90;;;;;;5087653;28;20209;-74
2021/03/13 12:45:12;;;;;;;3.60;1.98;;;8.00;99.90;;;;;;5094660;28;20201;-74
2021/03/13 12:47:38;;;;;;;2.78;1.33;;;7.80;99.90;;;;;;5094482;28;20652;-74
2021/03/13 12:50:07;;;;;;;6.97;1.50;;;7.80;99.90;;;;;;5093512;28;20197;-74
2021/03/13 12:52:34;;;;;;;3.33;1.50;;;7.80;99.90;;;;;;5099273;28;20220;-75
2021/03/13 12:55:00;;;;;;;5.22;1.60;;;7.90;99.90;;;;;;5088747;28;20200;-74
2021/03/13 12:57:28;;;;;;;4.20;1.25;;;7.80;99.90;;;;;;5087579;28;20525;-74
2021/03/13 12:59:54;;;;;;;3.53;1.60;;;7.80;99.90;;;;;;5087231;28;20230;-73
2021/03/13 13:02:21;;;;;;;11.75;2.28;;;7.80;99.90;;;;;;5087991;28;20201;-74
2021/03/13 13:04:47;;;;;;;5.20;1.88;;;7.80;99.90;;;;;;5087706;28;20243;-74
2021/03/13 13:07:14;;;;;;;6.65;1.73;;;7.80;99.90;;;;;;5088041;28;20204;-74
2021/03/13 13:09:42;;;;;;;16.27;2.17;;;7.80;99.90;;;;;;5093084;28;20214;-74
2021/03/13 13:12:09;;;;;;;13.93;2.72;;;7.70;99.90;;;;;;5093102;28;20235;-74
2021/03/13 13:14:37;;;;;;;8.68;2.88;;;7.70;99.90;;;;;;5087086;28;20208;-74
2021/03/13 13:17:04;;;;;;;12.15;3.65;;;7.70;99.90;;;;;;5099205;28;20203;-74
2021/03/13 13:19:50;;;;;;;12.07;3.63;;;7.60;99.90;;;;;;5091934;28;20212;-75